Latest Weather Observations for Richmond

IDQ60801

Issued at 7:02 am EST Wednesday 22 February 2017 (issued every 30 minutes, with the page automatically refreshed every 10 minutes)

About weather observations | Map of weather stations | Latest weather observations for QLD | Other Formats
Station Details ID: 030161 Name: RICHMOND AIRPORT Lat: -20.70 Lon: 143.12 Height: 206.3 m
Data from the previous 72 hours. | See also: Recent months at Richmond
Date/Time
EST
Temp
°C
App
Temp
°C
Dew
Point
°C
Rel
Hum
%
Delta-T
°C
Wind Press
QNH
hPa
Press
MSL
hPa
Rain since
9am
mm
Dir  Spd
km/h
Gust
km/h
Spd
kts
Gust
kts
22/06:30am 22.0 25.4 21.0 94 0.7 E 4 6 2 3 1012.3 1010.8 8.8
22/06:00am 22.0 25.1 21.0 94 0.7 E 6 7 3 4 1011.8 1010.3 8.8
22/05:30am 21.9 24.2 20.7 93 0.8 NE 9 11 5 6 1011.8 1010.3 8.8
22/05:00am 21.9 23.5 20.7 93 0.8 NNE 13 17 7 9 1012.0 1010.5 8.8
22/04:30am 21.8 23.3 20.6 93 0.8 NE 13 17 7 9 1011.6 1010.1 8.8
22/04:00am 21.5 22.6 20.5 94 0.7 NE 15 20 8 11 1011.3 1009.8 8.8
22/03:30am 21.2 22.6 20.4 95 0.5 ENE 13 20 7 11 1011.5 1010.0 8.8
22/03:00am 20.9 22.0 19.7 93 0.8 ENE 13 22 7 12 1012.1 1010.6 8.8
22/02:30am 21.1 21.5 19.9 93 0.8 ENE 17 28 9 15 1012.5 1011.0 8.8
22/02:00am 21.1 21.7 20.3 95 0.5 E 17 22 9 12 1013.0 1011.5 8.8
22/01:30am 21.3 22.5 20.6 96 0.5 E 15 19 8 10 1013.7 1012.2 8.8
22/01:00am 21.2 23.1 20.5 96 0.5 NE 11 17 6 9 1015.1 1013.6 8.6
22/12:30am 21.4 22.6 20.7 96 0.5 NNE 15 19 8 10 1015.6 1014.1 8.2
22/12:00am 21.5 23.9 20.8 96 0.5 N 9 11 5 6 1015.5 1014.0 7.4
 
Date/Time
EST
Temp
°C
App
Temp
°C
Dew
Point
°C
Rel
Hum
%
Delta-T
°C
Wind Press
QNH
hPa
Press
MSL
hPa
Rain since
9am
mm
Dir  Spd
km/h
Gust
km/h
Spd
kts
Gust
kts
21/11:30pm 21.6 24.4 20.8 95 0.5 E 7 9 4 5 1015.2 1013.7 6.8
21/11:00pm 21.5 25.5 20.5 94 0.7 CALM 0 0 0 0 1015.0 1013.5 6.4
21/10:30pm 21.4 24.3 20.6 95 0.5 NW 6 7 3 4 1015.5 1014.0 5.6
21/10:00pm 21.4 24.3 20.6 95 0.5 NNW 6 9 3 5 1015.9 1014.4 4.0
21/09:30pm 21.5 23.2 20.1 92 0.9 NNW 11 15 6 8 1015.9 1014.4 2.0
21/09:00pm 22.6 22.2 19.4 82 2.1 NNE 20 28 11 15 1015.6 1014.1 0.0
21/08:30pm 26.1 26.3 17.7 60 5.3 NE 13 19 7 10 1013.8 1012.3 0.0
21/08:00pm 26.6 27.6 18.7 62 5.1 NNE 11 13 6 7 1013.2 1011.7 0.0
21/07:30pm 27.8 29.1 17.6 53 6.5 SSE 7 11 4 6 1012.3 1010.8 0.0
21/07:00pm 29.1 28.0 16.3 46 8.0 SSE 17 22 9 12 1011.7 1010.2 0.0
21/06:30pm 29.5 26.8 15.6 43 8.6 S 24 32 13 17 1011.0 1009.5 0.0
21/06:00pm 29.9 26.7 15.2 41 9.1 S 26 32 14 17 1010.7 1009.2 0.0
21/05:30pm 30.6 27.6 15.8 40 9.3 SSE 26 30 14 16 1010.2 1008.7 0.0
21/05:00pm 31.0 27.5 13.3 34 10.7 SSE 24 32 13 17 1010.2 1008.7 0.0
21/04:30pm 31.4 28.0 13.6 33 10.8 SSE 24 30 13 16 1010.3 1008.8 0.0
21/04:00pm 32.0 30.3 14.6 34 10.8 SSE 17 24 9 13 1010.4 1008.9 0.0
21/03:30pm 32.3 31.0 14.9 35 10.8 ESE 15 20 8 11 1010.5 1009.0 0.0
21/03:00pm 32.6 31.3 14.7 34 11.1 SE 15 22 8 12 1010.8 1009.3 0.0
21/02:30pm 31.4 30.8 14.5 35 10.4 E 11 15 6 8 1011.1 1009.6 0.0
21/02:00pm 30.9 31.1 15.7 39 9.5 E 9 13 5 7 1011.4 1009.9 0.0
21/01:30pm 30.3 30.6 16.0 42 9.0 NE 9 13 5 7 1011.7 1010.2 0.0
21/01:00pm 30.8 30.6 14.8 37 9.9 NE 9 17 5 9 1011.9 1010.4 0.0
21/12:30pm 30.7 30.7 15.2 39 9.6 ESE 9 17 5 9 1012.1 1010.6 0.0
21/12:00pm 29.3 29.9 15.8 44 8.4 E 7 13 4 7 1012.3 1010.8 0.0
21/11:30am 28.3 29.1 17.2 51 7.0 ENE 9 13 5 7 1012.6 1011.1 0.0
21/11:00am 26.6 27.6 17.7 58 5.6 NE 9 13 5 7 1013.1 1011.6 0.0
21/10:30am 25.8 27.3 19.0 66 4.4 E 9 13 5 7 1013.3 1011.8 0.0
21/10:00am 25.5 26.5 18.7 66 4.4 ENE 11 19 6 10 1013.2 1011.7 0.0
21/09:30am 24.6 26.7 20.1 76 2.9 NE 9 17 5 9 1013.6 1012.1 0.0
21/09:00am 23.4 25.2 20.3 83 2.0 NNE 11 22 6 12 1013.4 1011.9 0.0
21/08:30am 22.4 24.6 20.3 88 1.4 NE 9 15 5 8 1013.1 1011.6 0.0
21/08:00am 21.7 23.5 19.6 88 1.3 N 9 13 5 7 1013.5 1012.0 0.0
21/07:30am 21.3 21.7 19.8 91 1.0 NNW 17 22 9 12 1013.7 1012.2 0.0
21/07:00am 21.4 22.9 19.7 90 1.1 NNW 11 17 6 9 1013.5 1012.0 0.0
21/06:30am 21.2 23.1 19.7 91 1.0 NNW 9 11 5 6 1012.8 1011.3 0.0
21/06:00am 21.1 22.5 19.6 91 1.0 NW 11 13 6 7 1012.0 1010.5 0.0
21/05:30am 21.4 23.6 19.5 89 1.2 SSE 7 9 4 5 1011.5 1010.0 0.0
21/05:00am 21.4 23.5 19.3 88 1.3 SSE 7 9 4 5 1011.4 1009.9 0.0
21/04:30am 21.4 23.6 19.1 87 1.5 ESE 6 9 3 5 1011.7 1010.2 0.0
21/04:00am 21.6 23.6 18.8 84 1.8 NNE 6 9 3 5 1012.3 1010.8 0.0
21/03:30am 21.9 22.2 18.7 82 2.0 N 15 22 8 12 1012.7 1011.2 0.0
21/03:00am 22.8 22.3 19.0 79 2.4 N 20 28 11 15 1012.7 1011.2 0.0
21/02:30am 24.2 24.8 20.3 79 2.6 NNW 17 22 9 12 1012.7 1011.2 0.0
21/02:00am 24.5 25.3 19.8 75 3.1 NNW 15 20 8 11 1012.6 1011.1 0.0
21/01:30am 24.1 24.2 19.2 74 3.2 NNW 17 20 9 11 1012.4 1010.9 0.0
21/01:00am 24.9 28.0 18.6 68 4.0 CALM 0 0 0 0 1011.7 1010.2 0.0
21/12:30am 25.0 26.6 18.2 66 4.3 SSW 7 9 4 5 1011.6 1010.1 0.0
21/12:00am 25.0 26.7 18.4 66 4.2 SW 7 9 4 5 1011.6 1010.1 0.0
 
Date/Time
EST
Temp
°C
App
Temp
°C
Dew
Point
°C
Rel
Hum
%
Delta-T
°C
Wind Press
QNH
hPa
Press
MSL
hPa
Rain since
9am
mm
Dir  Spd
km/h
Gust
km/h
Spd
kts
Gust
kts
20/11:30pm 25.3 25.9 18.7 67 4.2 WSW 13 17 7 9 1011.6 1010.1 0.0
20/11:00pm 25.0 27.2 20.3 75 3.1 SW 9 11 5 6 1011.6 1010.1 0.0
20/10:30pm 26.0 27.8 19.6 68 4.2 WNW 9 11 5 6 1011.4 1009.9 0.0
20/10:00pm 25.3 26.3 19.4 70 3.8 W 13 13 7 7 1011.1 1009.6 0.0
20/09:30pm 26.3 29.1 19.7 67 4.3 E 4 7 2 4 1010.8 1009.3 0.0
20/09:00pm 27.1 29.1 18.7 60 5.4 E 6 6 3 3 1010.6 1009.1 0.0
20/08:30pm 26.5 29.4 19.1 64 4.8 S 2 7 1 4 1010.3 1008.8 0.0
20/08:00pm 27.4 28.5 18.9 59 5.5 SSE 11 11 6 6 1009.8 1008.2 0.0
20/07:30pm 27.7 29.3 19.2 60 5.5 S 9 11 5 6 1009.5 1007.9 0.0
20/07:00pm 27.7 29.5 19.5 61 5.4 S 9 13 5 7 1009.0 1007.5 0.0
20/06:30pm 28.9 31.2 19.8 58 6.0 SSW 7 9 4 5 1008.6 1007.1 0.0
20/06:00pm 29.5 31.1 18.3 51 7.2 WSW 7 9 4 5 1008.6 1007.1 0.0
20/05:30pm 29.6 32.7 19.6 55 6.6 SSE 2 9 1 5 1008.5 1007.0 0.0
20/05:00pm 30.6 33.9 19.0 50 7.6 CALM 0 0 0 0 1008.2 1006.7 0.0
20/04:30pm 30.6 31.1 15.5 40 9.4 SE 7 7 4 4 1008.2 1006.7 0.0
20/04:00pm 30.9 32.0 14.5 37 10.1 ENE 2 9 1 5 1008.6 1007.1 0.0
20/03:30pm 31.4 31.7 14.5 35 10.4 NE 6 9 3 5 1008.8 1007.3 0.0
20/03:00pm 31.5 31.5 14.2 35 10.6 NE 7 11 4 6 1009.2 1007.7 0.0
20/02:30pm 31.5 31.0 13.7 33 10.8 NE 9 11 5 6 1009.6 1008.0 0.0
20/02:00pm 31.6 31.1 13.8 34 10.9 ENE 9 17 5 9 1009.7 1008.1 0.0
20/01:30pm 31.6 30.4 12.9 32 11.2 E 11 17 6 9 1009.9 1008.3 0.0
20/01:00pm 31.3 30.0 12.6 31 11.2 ENE 11 17 6 9 1010.1 1008.5 0.0
20/12:30pm 31.1 29.0 11.0 29 11.7 E 13 22 7 12 1010.3 1008.8 0.0
20/12:00pm 30.9 28.6 11.8 31 11.3 E 15 22 8 12 1010.6 1009.1 0.0
20/11:30am 29.8 27.0 11.3 32 10.8 ESE 17 22 9 12 1010.9 1009.4 0.0
20/11:00am 29.1 27.4 12.5 36 9.8 ESE 13 19 7 10 1011.4 1009.9 0.0
20/10:30am 28.6 26.8 13.3 39 9.1 ESE 15 20 8 11 1011.6 1010.1 0.0
20/10:00am 27.1 24.3 12.7 41 8.5 ESE 19 24 10 13 1011.9 1010.4 0.0
20/09:30am 26.7 23.6 13.4 43 7.9 ESE 22 30 12 16 1011.7 1010.2 0.0
20/09:00am 25.8 24.4 16.9 58 5.6 SE 20 26 11 14 1011.3 1009.8 0.4
20/08:30am 24.4 24.4 20.1 77 2.8 SE 20 28 11 15 1010.7 1009.2 0.4
20/08:00am 23.3 25.0 21.6 90 1.1 SSE 15 19 8 10 1010.6 1009.1 0.4
20/07:30am 22.3 24.3 21.5 95 0.5 SSE 13 15 7 8 1010.4 1008.9 0.4
20/07:00am 22.0 25.0 21.3 96 0.5 S 7 9 4 5 1010.1 1008.5 0.4
20/06:30am 21.6 24.0 20.8 95 0.5 S 9 15 5 8 1009.8 1008.2 0.4
20/06:00am 22.4 26.9 21.6 95 0.5 CALM 0 0 0 0 1009.2 1007.7 0.4
20/05:30am 22.1 26.4 21.1 94 0.7 CALM 0 0 0 0 1009.1 1007.6 0.4
20/05:00am 22.2 26.5 21.2 94 0.7 CALM 0 0 0 0 1009.2 1007.7 0.4
20/04:30am 22.5 26.9 21.3 93 0.8 CALM 0 0 0 0 1009.0 1007.5 0.4
20/04:00am 22.7 27.3 21.7 94 0.7 CALM 0 0 0 0 1008.9 1007.4 0.4
20/03:30am 22.6 26.6 21.4 93 0.8 NNW 2 7 1 4 1008.8 1007.3 0.4
20/03:00am 22.8 25.3 21.8 94 0.7 NNW 11 13 6 7 1008.9 1007.4 0.4
20/02:30am 22.9 25.7 21.5 92 0.9 N 9 9 5 5 1009.2 1007.7 0.4
20/02:00am 23.5 26.8 21.9 91 1.1 N 7 9 4 5 1009.6 1008.0 0.4
20/01:30am 23.5 26.8 21.9 91 1.1 N 7 7 4 4 1010.0 1008.4 0.4
20/01:00am 23.7 28.3 21.8 89 1.3 CALM 0 0 0 0 1010.3 1008.8 0.4
20/12:30am 23.9 28.6 22.0 89 1.3 CALM 0 0 0 0 1010.5 1009.0 0.4
20/12:00am 24.1 28.7 21.8 87 1.5 CALM 0 0 0 0 1010.6 1009.1 0.4
 
Date/Time
EST
Temp
°C
App
Temp
°C
Dew
Point
°C
Rel
Hum
%
Delta-T
°C
Wind Press
QNH
hPa
Press
MSL
hPa
Rain since
9am
mm
Dir  Spd
km/h
Gust
km/h
Spd
kts
Gust
kts
19/11:30pm 24.5 28.6 22.2 87 1.5 NNE 4 7 2 4 1010.7 1009.2 0.4
19/11:00pm 24.3 27.3 22.0 87 1.5 NNE 9 11 5 6 1010.6 1009.1 0.4
19/10:30pm 24.6 27.6 21.9 85 1.8 NNE 9 9 5 5 1010.6 1009.1 0.4
19/10:00pm 25.0 27.5 21.7 82 2.2 NNE 11 13 6 7 1010.4 1008.9 0.4
19/09:30pm 25.3 27.5 21.8 81 2.3 NNE 13 15 7 8 1010.1 1008.5 0.4
19/09:00pm 25.4 27.6 21.9 81 2.4 NNE 13 15 7 8 1009.8 1008.2 0.4
19/08:30pm 25.7 28.6 21.8 79 2.6 N 9 11 5 6 1009.6 1008.0 0.4
19/08:00pm 26.0 29.0 21.9 78 2.8 N 9 9 5 5 1009.2 1007.7 0.4
19/07:30pm 27.1 30.2 21.4 71 3.8 NW 7 7 4 4 1008.9 1007.4 0.4
19/07:00pm 27.8 31.0 21.6 69 4.2 NW 7 9 4 5 1008.8 1007.3 0.4
19/06:30pm 28.6 31.1 20.3 60 5.5 NW 7 11 4 6 1008.8 1007.3 0.4
19/06:00pm 29.6 30.3 19.6 55 6.6 NW 15 19 8 10 1008.6 1007.1 0.4
19/05:30pm 30.4 32.3 19.7 52 7.1 NW 9 15 5 8 1008.2 1006.7 0.4
19/05:00pm 30.6 32.2 19.9 52 7.1 NNW 11 19 6 10 1008.2 1006.7 0.4
19/04:30pm 30.3 32.1 19.6 52 7.1 WNW 9 15 5 8 1008.3 1006.8 0.4
19/04:00pm 30.2 32.4 19.6 53 7.0 W 7 11 4 6 1008.4 1006.9 0.4
19/03:30pm 29.8 32.2 20.1 56 6.4 N 7 11 4 6 1008.4 1006.9 0.4
19/03:00pm 28.4 30.9 20.2 61 5.4 NNE 7 13 4 7 1008.5 1007.0 0.4
19/02:30pm 28.3 30.5 20.3 62 5.3 NE 9 13 5 7 1008.7 1007.2 0.4
19/02:00pm 28.1 29.9 19.6 60 5.6 ENE 9 13 5 7 1009.2 1007.7 0.4
19/01:30pm 27.0 28.3 20.1 66 4.5 ENE 13 17 7 9 1009.7 1008.1 0.2
19/01:00pm 26.5 28.5 21.5 74 3.4 NE 13 17 7 9 1010.3 1008.8 0.2
19/12:30pm 25.9 27.9 21.6 77 2.9 NE 13 17 7 9 1010.9 1009.4 0.2
19/12:00pm 25.5 28.1 22.6 84 2.0 NNE 13 17 7 9 1011.5 1010.0 0.2
19/11:30am 25.1 28.8 23.2 89 1.3 NE 9 11 5 6 1011.9 1010.4 0.2
19/11:00am 24.7 28.2 22.8 89 1.3 NE 9 13 5 7 1012.2 1010.7 0.0
19/10:30am 24.5 27.8 22.6 89 1.3 ENE 9 13 5 7 1012.2 1010.7 0.0
19/10:00am 24.3 26.9 22.6 90 1.2 NE 13 17 7 9 1012.3 1010.8 0.0
19/09:30am 24.3 26.9 22.6 90 1.1 NE 13 17 7 9 1012.3 1010.8 0.0
19/09:00am 24.0 27.5 22.8 93 0.8 NE 9 13 5 7 1012.3 1010.8 1.4
19/08:30am 23.5 26.6 22.1 92 0.9 ENE 9 13 5 7 1012.2 1010.7 1.2
19/08:00am 23.3 26.5 22.3 94 0.7 ENE 9 15 5 8 1011.8 1010.3 1.2
19/07:30am 23.3 26.4 22.1 93 0.8 ENE 9 15 5 8 1011.7 1010.2 1.2

Other Formats:

Comma delimited format used in spreadsheet applications
http://www.bom.gov.au/fwo/IDQ60801/IDQ60801.94341.axf

JavaScript Object Notation format (JSON) in row-major order
http://www.bom.gov.au/fwo/IDQ60801/IDQ60801.94341.json